createdAt,value
2019-01-10T00:00:28.061Z,0.40
2019-01-10T00:02:55.897Z,0.40
2019-01-10T00:05:23.310Z,0.30
2019-01-10T00:07:50.708Z,0.30
2019-01-10T00:10:18.275Z,0.50
2019-01-10T00:12:45.676Z,0.40
2019-01-10T00:15:15.164Z,0.30
2019-01-10T00:17:42.707Z,0.30
2019-01-10T00:20:11.015Z,0.40
2019-01-10T00:22:38.583Z,0.30
2019-01-10T00:25:07.711Z,0.40
2019-01-10T00:27:35.123Z,0.40
2019-01-10T00:30:04.127Z,0.40
2019-01-10T00:32:31.977Z,0.40
2019-01-10T00:34:59.686Z,0.30
2019-01-10T00:37:27.508Z,0.40
2019-01-10T00:39:54.960Z,0.40
2019-01-10T00:42:22.559Z,0.30
2019-01-10T00:44:49.972Z,0.30
2019-01-10T00:47:17.428Z,0.20
2019-01-10T00:49:44.823Z,0.30
2019-01-10T00:52:12.315Z,0.30
2019-01-10T00:54:39.871Z,0.20
2019-01-10T00:57:07.260Z,0.30
2019-01-10T00:59:34.665Z,0.40
2019-01-10T01:02:02.118Z,0.30
2019-01-10T01:04:29.548Z,0.30
2019-01-10T01:06:56.944Z,0.40
2019-01-10T01:09:24.499Z,0.40
2019-01-10T01:11:52.563Z,0.30
2019-01-10T01:14:21.017Z,0.20
2019-01-10T01:16:48.470Z,0.30
2019-01-10T01:19:15.870Z,0.20
2019-01-10T01:21:43.508Z,0.20
2019-01-10T01:24:11.298Z,0.40
2019-01-10T01:26:38.709Z,0.30
2019-01-10T01:29:06.119Z,0.30
2019-01-10T01:31:33.576Z,0.30
2019-01-10T01:34:00.973Z,0.30
2019-01-10T01:36:28.397Z,0.30
2019-01-10T01:38:56.027Z,0.40
2019-01-10T01:41:23.443Z,0.20
2019-01-10T01:43:50.869Z,0.30
2019-01-10T01:46:18.448Z,0.30
2019-01-10T01:48:45.851Z,0.30
2019-01-10T01:51:13.267Z,0.40
2019-01-10T01:53:40.808Z,0.40
2019-01-10T01:56:08.227Z,0.40
2019-01-10T01:58:36.136Z,0.40
2019-01-10T02:01:04.523Z,0.30
2019-01-10T02:03:31.941Z,0.40
2019-01-10T02:05:59.339Z,0.40
2019-01-10T02:08:26.798Z,0.30
2019-01-10T02:10:54.191Z,0.30
2019-01-10T02:13:21.588Z,0.40
2019-01-10T02:15:49.182Z,0.40
2019-01-10T02:18:16.582Z,0.40
2019-01-10T02:20:43.981Z,0.40
2019-01-10T02:23:11.427Z,0.40
2019-01-10T02:25:39.460Z,0.40
2019-01-10T02:28:06.867Z,0.40
2019-01-10T02:30:41.755Z,0.40
2019-01-10T02:33:03.912Z,0.30
2019-01-10T02:35:31.313Z,0.30
2019-01-10T02:37:58.911Z,0.30
2019-01-10T02:40:26.319Z,0.30
2019-01-10T02:42:54.917Z,0.20
2019-01-10T02:45:22.647Z,0.40
2019-01-10T02:47:50.047Z,0.20
2019-01-10T02:50:20.044Z,0.40
2019-01-10T02:52:47.482Z,0.30
2019-01-10T02:55:14.879Z,0.30
2019-01-10T02:57:42.316Z,0.20
2019-01-10T03:00:12.903Z,0.30
2019-01-10T03:02:40.300Z,0.40
2019-01-10T03:05:08.382Z,0.30
2019-01-10T03:07:35.844Z,0.30
2019-01-10T03:10:06.053Z,0.20
2019-01-10T03:12:33.454Z,0.20
2019-01-10T03:15:01.084Z,0.20
2019-01-10T03:17:28.469Z,0.20
2019-01-10T03:19:55.872Z,0.20
2019-01-10T03:22:23.316Z,0.20
2019-01-10T03:24:50.973Z,0.20
2019-01-10T03:27:18.397Z,0.20
2019-01-10T03:29:45.872Z,0.20
2019-01-10T03:32:15.087Z,0.20
2019-01-10T03:34:42.501Z,0.20
2019-01-10T03:37:09.944Z,0.20
2019-01-10T03:39:37.350Z,0.30
2019-01-10T03:42:04.772Z,0.30
2019-01-10T03:44:34.333Z,0.30
2019-01-10T03:47:01.475Z,0.30
2019-01-10T03:49:28.875Z,0.30
2019-01-10T03:51:56.328Z,0.20
2019-01-10T03:54:23.748Z,0.30
2019-01-10T03:56:51.168Z,0.30
2019-01-10T03:59:18.880Z,0.30
2019-01-10T04:01:46.283Z,0.30
2019-01-10T04:04:13.693Z,0.40
2019-01-10T04:06:41.291Z,0.40
2019-01-10T04:09:08.691Z,0.40
2019-01-10T04:11:36.333Z,0.40
2019-01-10T04:14:04.183Z,0.30
2019-01-10T04:16:31.579Z,0.30
2019-01-10T04:18:59.010Z,0.40
2019-01-10T04:21:26.495Z,0.40
2019-01-10T04:23:54.543Z,0.40
2019-01-10T04:26:22.447Z,0.40
2019-01-10T04:28:49.977Z,0.40
2019-01-10T04:31:17.405Z,0.50
2019-01-10T04:33:44.825Z,0.50
2019-01-10T04:36:14.184Z,0.50
2019-01-10T04:38:41.595Z,0.60
2019-01-10T04:41:09.311Z,0.50
2019-01-10T04:43:36.775Z,0.50
2019-01-10T04:46:04.191Z,0.50
2019-01-10T04:48:31.597Z,0.50
2019-01-10T04:50:59.168Z,0.40
2019-01-10T04:53:26.765Z,0.50
2019-01-10T04:55:54.316Z,0.40
2019-01-10T04:58:21.972Z,0.40
2019-01-10T05:00:49.414Z,0.40
2019-01-10T05:03:16.818Z,0.50
2019-01-10T05:05:44.314Z,0.50
2019-01-10T05:08:11.720Z,0.50
2019-01-10T05:10:39.128Z,0.60
2019-01-10T05:13:06.779Z,0.60
2019-01-10T05:15:34.195Z,0.60
2019-01-10T05:18:01.820Z,0.60
2019-01-10T05:20:29.429Z,0.60
2019-01-10T05:22:57.015Z,0.60
2019-01-10T05:25:24.748Z,0.60
2019-01-10T05:27:52.233Z,0.60
2019-01-10T05:30:23.851Z,0.70
2019-01-10T05:32:51.339Z,0.60
2019-01-10T05:35:19.003Z,0.60
2019-01-10T05:37:46.686Z,0.70
2019-01-10T05:40:14.167Z,0.70
2019-01-10T05:42:43.009Z,0.60
2019-01-10T05:45:11.475Z,0.60
2019-01-10T05:47:38.949Z,0.60
2019-01-10T05:50:08.741Z,0.70
2019-01-10T05:52:36.215Z,0.70
2019-01-10T05:55:05.332Z,0.70
2019-01-10T05:57:32.916Z,0.70
2019-01-10T06:00:00.399Z,0.70
2019-01-10T06:02:27.942Z,0.80
2019-01-10T06:04:55.536Z,0.90
2019-01-10T06:07:23.028Z,0.90
2019-01-10T06:09:50.507Z,0.90
2019-01-10T06:12:18.027Z,1.00
2019-01-10T06:14:45.492Z,0.80
2019-01-10T06:17:13.066Z,0.80
2019-01-10T06:19:40.579Z,0.80
2019-01-10T06:22:08.067Z,0.70
2019-01-10T06:24:35.645Z,0.70
2019-01-10T06:27:03.686Z,0.70
2019-01-10T06:29:31.078Z,0.70
2019-01-10T06:31:58.567Z,0.70
2019-01-10T06:34:26.294Z,0.70
2019-01-10T06:36:53.791Z,0.70
2019-01-10T06:39:21.268Z,0.70
2019-01-10T06:41:48.803Z,0.70
2019-01-10T06:44:16.279Z,0.80
2019-01-10T06:46:43.747Z,0.80
2019-01-10T06:49:11.243Z,0.70
2019-01-10T06:51:38.740Z,0.80
2019-01-10T06:54:06.213Z,0.80
2019-01-10T06:56:33.743Z,0.80
2019-01-10T06:59:01.231Z,0.80
2019-01-10T07:01:28.692Z,0.80
2019-01-10T07:03:56.203Z,0.80
2019-01-10T07:06:23.615Z,0.90
2019-01-10T07:08:51.050Z,0.90
2019-01-10T07:11:18.583Z,0.80
2019-01-10T07:13:45.987Z,0.90
2019-01-10T07:16:13.383Z,0.90
2019-01-10T07:18:40.819Z,0.80
2019-01-10T07:21:08.219Z,0.80
2019-01-10T07:23:37.589Z,0.80
2019-01-10T07:26:17.799Z,0.80
2019-01-10T07:28:45.631Z,0.90
2019-01-10T07:31:29.086Z,0.80
2019-01-10T07:34:00.919Z,0.90
2019-01-10T07:36:28.311Z,1.00
2019-01-10T07:38:56.093Z,1.00
2019-01-10T07:41:24.991Z,1.00
2019-01-10T07:43:52.379Z,1.00
2019-01-10T07:46:19.953Z,1.00
2019-01-10T07:48:49.019Z,1.00
2019-01-10T07:51:16.490Z,1.00
2019-01-10T07:53:43.980Z,1.10
2019-01-10T07:56:11.508Z,1.00
2019-01-10T07:58:38.894Z,1.10
2019-01-10T08:01:06.331Z,1.10
2019-01-10T08:03:33.735Z,1.10
2019-01-10T08:06:01.115Z,1.10
2019-01-10T08:08:28.577Z,1.20
2019-01-10T08:10:55.953Z,1.20
2019-01-10T08:13:25.053Z,1.30
2019-01-10T08:15:52.468Z,1.40
2019-01-10T08:18:19.861Z,1.40
2019-01-10T08:20:47.507Z,1.40
2019-01-10T08:23:14.900Z,1.40
2019-01-10T08:25:42.301Z,1.40
2019-01-10T08:28:09.856Z,1.50
2019-01-10T08:30:37.582Z,1.50
2019-01-10T08:33:04.987Z,1.50
2019-01-10T08:35:32.771Z,1.60
2019-01-10T08:38:00.164Z,1.60
2019-01-10T08:40:27.659Z,1.70
2019-01-10T08:42:55.149Z,1.70
2019-01-10T08:45:22.541Z,1.70
2019-01-10T08:47:49.955Z,1.80
2019-01-10T08:50:20.306Z,1.80
2019-01-10T08:52:47.763Z,1.90
2019-01-10T08:55:15.271Z,1.80
2019-01-10T08:57:42.760Z,2.00
2019-01-10T09:00:13.051Z,2.10
2019-01-10T09:02:40.427Z,2.10
2019-01-10T09:05:08.419Z,2.10
2019-01-10T09:07:35.835Z,2.20
2019-01-10T09:10:04.240Z,2.20
2019-01-10T09:12:31.670Z,2.10
2019-01-10T09:14:59.085Z,2.20
2019-01-10T09:17:26.510Z,2.30
2019-01-10T09:19:54.007Z,2.40
2019-01-10T09:22:21.835Z,2.40
2019-01-10T09:24:49.243Z,2.40
2019-01-10T09:27:16.731Z,2.50
2019-01-10T09:29:44.418Z,2.50
2019-01-10T09:32:12.238Z,2.60
2019-01-10T09:34:39.719Z,2.50
2019-01-10T09:37:07.132Z,2.60
2019-01-10T09:39:34.575Z,2.50
2019-01-10T09:42:02.051Z,2.60
2019-01-10T09:44:29.451Z,2.70
2019-01-10T09:46:56.863Z,2.70
2019-01-10T09:49:24.338Z,2.80
2019-01-10T09:51:51.723Z,2.90
2019-01-10T09:54:19.163Z,2.90
2019-01-10T09:56:46.647Z,2.90
2019-01-10T09:59:14.047Z,3.00
2019-01-10T10:01:41.435Z,3.00
2019-01-10T10:04:08.875Z,2.90
2019-01-10T10:06:36.259Z,3.00
2019-01-10T10:09:06.804Z,3.00
2019-01-10T10:11:34.498Z,2.90
2019-01-10T10:14:01.903Z,3.00
2019-01-10T10:16:29.319Z,2.90
2019-01-10T10:18:56.871Z,3.00
2019-01-10T10:21:24.329Z,3.00
2019-01-10T10:23:51.659Z,3.10
2019-01-10T10:26:19.092Z,3.20
2019-01-10T10:28:46.689Z,3.10
2019-01-10T10:31:14.588Z,3.10
2019-01-10T10:33:42.033Z,3.20
2019-01-10T10:36:09.423Z,3.30
2019-01-10T10:38:36.832Z,3.20
2019-01-10T10:41:04.238Z,3.30
2019-01-10T10:43:31.631Z,3.10
2019-01-10T10:46:01.625Z,3.10
2019-01-10T10:48:28.347Z,2.90
2019-01-10T10:50:57.991Z,3.00
2019-01-10T10:53:25.383Z,3.10
2019-01-10T10:55:53.061Z,3.20
2019-01-10T10:58:20.451Z,3.20
2019-01-10T11:00:47.854Z,3.10
2019-01-10T11:03:15.302Z,2.90
2019-01-10T11:05:43.593Z,3.00
2019-01-10T11:08:10.987Z,2.80
2019-01-10T11:10:38.429Z,2.80
2019-01-10T11:13:05.937Z,2.80
2019-01-10T11:15:33.332Z,2.70
2019-01-10T11:18:00.791Z,2.60
2019-01-10T11:20:28.185Z,2.50
2019-01-10T11:22:55.569Z,2.50
2019-01-10T11:25:27.209Z,2.40
2019-01-10T11:27:55.404Z,2.20
2019-01-10T11:30:24.044Z,2.30
2019-01-10T11:32:53.734Z,2.40
2019-01-10T11:35:20.964Z,2.50
2019-01-10T11:37:48.371Z,2.50
2019-01-10T11:40:17.739Z,2.60
2019-01-10T11:42:45.125Z,2.70
2019-01-10T11:45:15.841Z,2.60
2019-01-10T11:47:43.380Z,2.60
2019-01-10T11:50:11.493Z,2.70
2019-01-10T11:52:38.907Z,2.50
2019-01-10T11:55:06.596Z,2.60
2019-01-10T11:57:33.989Z,2.60
2019-01-10T12:00:01.383Z,2.60
2019-01-10T12:02:36.277Z,2.70
2019-01-10T12:04:57.993Z,2.60
2019-01-10T12:07:25.423Z,2.60
2019-01-10T12:09:52.963Z,2.40
2019-01-10T12:12:20.498Z,2.50
2019-01-10T12:14:47.903Z,2.30
2019-01-10T12:17:15.408Z,2.40
2019-01-10T12:19:42.808Z,2.30
2019-01-10T12:22:10.193Z,2.40
2019-01-10T12:24:37.663Z,2.40
2019-01-10T12:27:05.647Z,2.30
2019-01-10T12:29:36.266Z,2.40
2019-01-10T12:32:03.216Z,2.40
2019-01-10T12:34:30.679Z,2.40
2019-01-10T12:37:00.375Z,2.50
2019-01-10T12:39:27.400Z,2.50
2019-01-10T12:41:54.800Z,2.60
2019-01-10T12:44:24.406Z,2.60
2019-01-10T12:46:52.820Z,2.30
2019-01-10T12:49:20.575Z,2.40
2019-01-10T12:51:48.668Z,2.60
2019-01-10T12:54:16.423Z,2.70
2019-01-10T12:56:46.128Z,2.70
2019-01-10T12:59:13.663Z,2.60
2019-01-10T13:01:41.473Z,2.70
2019-01-10T13:04:08.863Z,2.60
2019-01-10T13:06:36.266Z,2.50
2019-01-10T13:09:06.707Z,2.40
2019-01-10T13:11:34.115Z,2.40
2019-01-10T13:14:05.487Z,2.30
2019-01-10T13:16:30.780Z,2.10
2019-01-10T13:18:58.193Z,2.20
2019-01-10T13:21:25.599Z,2.30
2019-01-10T13:23:53.036Z,2.20
2019-01-10T13:26:20.454Z,2.20
2019-01-10T13:28:48.255Z,2.20
2019-01-10T13:31:16.009Z,2.20
2019-01-10T13:33:43.414Z,2.20
2019-01-10T13:36:10.806Z,2.20
2019-01-10T13:38:38.302Z,2.20
2019-01-10T13:41:06.303Z,2.20
2019-01-10T13:43:33.695Z,2.20
2019-01-10T13:46:01.246Z,2.20
2019-01-10T13:48:28.672Z,2.20
2019-01-10T13:50:57.931Z,2.10
2019-01-10T13:53:25.343Z,2.10
2019-01-10T13:55:52.743Z,2.00
2019-01-10T13:58:20.150Z,2.00
2019-01-10T14:00:47.854Z,1.90
2019-01-10T14:03:15.260Z,1.90
2019-01-10T14:05:42.679Z,2.00
2019-01-10T14:08:10.198Z,2.00
2019-01-10T14:10:37.599Z,2.00
2019-01-10T14:13:05.034Z,1.90
2019-01-10T14:15:34.103Z,1.90
2019-01-10T14:18:03.482Z,1.90
2019-01-10T14:20:30.774Z,1.90
2019-01-10T14:22:58.903Z,1.80
2019-01-10T14:25:26.381Z,1.70
2019-01-10T14:27:59.514Z,1.80
2019-01-10T14:30:27.391Z,1.60
2019-01-10T14:32:56.539Z,1.70
2019-01-10T14:35:25.780Z,1.70
2019-01-10T14:37:53.344Z,1.70
2019-01-10T14:40:20.739Z,1.60
2019-01-10T14:42:48.151Z,1.60
2019-01-10T14:45:15.839Z,1.50
2019-01-10T14:47:43.247Z,1.40
2019-01-10T14:50:10.860Z,1.40
2019-01-10T14:52:38.341Z,1.60
2019-01-10T14:55:07.675Z,1.50
2019-01-10T14:57:35.070Z,1.30
2019-01-10T15:00:03.215Z,1.30
2019-01-10T15:02:30.622Z,1.30
2019-01-10T15:04:58.008Z,1.30
2019-01-10T15:07:25.463Z,1.30
2019-01-10T15:09:52.851Z,1.20
2019-01-10T15:12:20.260Z,1.30
2019-01-10T15:14:47.787Z,1.20
2019-01-10T15:17:15.192Z,1.20
2019-01-10T15:19:42.575Z,1.10
2019-01-10T15:22:10.103Z,1.30
2019-01-10T15:24:37.497Z,1.30
2019-01-10T15:27:04.919Z,1.00
2019-01-10T15:29:32.475Z,1.00
2019-01-10T15:32:03.747Z,1.00
2019-01-10T15:34:31.178Z,1.00
2019-01-10T15:36:58.819Z,1.10
2019-01-10T15:39:26.531Z,1.00
2019-01-10T15:41:53.891Z,1.00
2019-01-10T15:44:21.513Z,1.10
2019-01-10T15:46:48.923Z,1.00
2019-01-10T15:49:16.327Z,1.00
2019-01-10T15:51:43.804Z,1.00
2019-01-10T15:54:11.204Z,1.00
2019-01-10T15:56:38.611Z,1.10
2019-01-10T15:59:06.135Z,1.10
2019-01-10T16:01:33.595Z,1.10
2019-01-10T16:04:07.089Z,1.00
2019-01-10T16:06:30.420Z,1.00
2019-01-10T16:08:57.829Z,1.10
2019-01-10T16:11:26.537Z,1.00
2019-01-10T16:13:54.000Z,1.00
2019-01-10T16:16:21.438Z,1.10
2019-01-10T16:18:48.887Z,1.10
2019-01-10T16:21:19.015Z,1.00
2019-01-10T16:23:46.587Z,1.20
2019-01-10T16:26:14.012Z,1.20
2019-01-10T16:28:43.623Z,1.10
2019-01-10T16:31:11.163Z,1.10
2019-01-10T16:33:38.939Z,1.10
2019-01-10T16:36:08.164Z,1.10
2019-01-10T16:38:35.595Z,1.00
2019-01-10T16:41:03.116Z,1.00
2019-01-10T16:43:30.601Z,1.00
2019-01-10T16:45:57.998Z,0.90
2019-01-10T16:48:25.421Z,1.00
2019-01-10T16:50:52.868Z,1.00
2019-01-10T16:53:20.277Z,0.90
2019-01-10T16:55:47.683Z,1.00
2019-01-10T16:58:15.151Z,1.00
2019-01-10T17:00:42.556Z,1.00
2019-01-10T17:03:09.979Z,0.90
2019-01-10T17:05:37.598Z,1.00
2019-01-10T17:08:05.015Z,1.10
2019-01-10T17:10:32.427Z,1.10
2019-01-10T17:12:59.990Z,1.10
2019-01-10T17:15:27.402Z,1.00
2019-01-10T17:17:54.804Z,1.10
2019-01-10T17:20:23.388Z,1.10
2019-01-10T17:22:50.815Z,1.10
2019-01-10T17:25:18.319Z,1.00
2019-01-10T17:27:45.798Z,1.00
2019-01-10T17:30:18.069Z,1.00
2019-01-10T17:32:46.180Z,1.00
2019-01-10T17:35:15.850Z,1.00
2019-01-10T17:37:45.075Z,1.00
2019-01-10T17:40:14.880Z,1.00
2019-01-10T17:42:42.629Z,1.00
2019-01-10T17:45:13.881Z,1.00
2019-01-10T17:47:44.147Z,1.10
2019-01-10T17:50:13.715Z,1.10
2019-01-10T17:53:00.736Z,1.10
2019-01-10T17:55:29.003Z,1.00
2019-01-10T17:57:56.422Z,1.10
2019-01-10T18:00:26.199Z,1.00
2019-01-10T18:02:53.647Z,1.00
2019-01-10T18:05:21.071Z,1.00
2019-01-10T18:07:48.490Z,1.00
2019-01-10T18:10:17.044Z,1.00
2019-01-10T18:12:44.606Z,1.10
2019-01-10T18:15:13.733Z,1.00
2019-01-10T18:17:41.526Z,1.00
2019-01-10T18:20:13.575Z,1.00
2019-01-10T18:22:40.988Z,1.00
2019-01-10T18:25:09.391Z,0.90
2019-01-10T18:27:36.848Z,1.00
2019-01-10T18:30:07.409Z,0.90
2019-01-10T18:32:35.055Z,0.90
2019-01-10T18:35:04.345Z,0.90
2019-01-10T18:37:31.720Z,0.90
2019-01-10T18:39:59.179Z,0.80
2019-01-10T18:42:26.603Z,0.80
2019-01-10T18:44:54.088Z,0.80
2019-01-10T18:47:21.682Z,0.80
2019-01-10T18:49:49.083Z,0.90
2019-01-10T18:52:16.502Z,0.80
2019-01-10T18:54:43.956Z,0.80
2019-01-10T18:57:12.064Z,0.80
2019-01-10T18:59:39.477Z,0.80
2019-01-10T19:02:07.063Z,0.80
2019-01-10T19:04:34.495Z,0.70
2019-01-10T19:07:01.895Z,0.70
2019-01-10T19:09:29.531Z,0.70
2019-01-10T19:11:56.932Z,0.70
2019-01-10T19:14:26.780Z,0.60
2019-01-10T19:16:56.339Z,0.60
2019-01-10T19:19:24.041Z,0.70
2019-01-10T19:21:51.460Z,0.70
2019-01-10T19:24:19.040Z,0.70
2019-01-10T19:26:46.462Z,0.60
2019-01-10T19:29:14.184Z,0.70
2019-01-10T19:31:41.661Z,0.60
2019-01-10T19:34:09.108Z,0.60
2019-01-10T19:36:36.673Z,0.70
2019-01-10T19:39:07.351Z,0.70
2019-01-10T19:41:35.217Z,0.60
2019-01-10T19:44:02.839Z,0.70
2019-01-10T19:46:30.583Z,0.70
2019-01-10T19:48:59.920Z,0.70
2019-01-10T19:51:27.326Z,0.70
2019-01-10T19:53:54.807Z,0.70
2019-01-10T19:56:22.791Z,0.70
2019-01-10T19:58:50.214Z,0.60
2019-01-10T20:01:19.060Z,0.70
2019-01-10T20:03:46.793Z,0.70
2019-01-10T20:06:17.473Z,0.70
2019-01-10T20:08:45.791Z,0.70
2019-01-10T20:11:13.220Z,0.60
2019-01-10T20:13:40.654Z,0.60
2019-01-10T20:16:08.595Z,0.60
2019-01-10T20:18:38.165Z,0.60
2019-01-10T20:21:07.220Z,0.60
2019-01-10T20:23:36.000Z,0.70
2019-01-10T20:26:04.239Z,0.70
2019-01-10T20:28:31.715Z,0.60
2019-01-10T20:30:59.471Z,0.50
2019-01-10T20:33:28.229Z,0.50
2019-01-10T20:35:55.693Z,0.40
2019-01-10T20:38:23.169Z,0.30
2019-01-10T20:40:50.591Z,0.30
2019-01-10T20:43:18.007Z,0.40
2019-01-10T20:45:45.657Z,0.30
2019-01-10T20:48:32.655Z,0.30
2019-01-10T20:51:01.354Z,0.30
2019-01-10T20:53:29.432Z,0.30
2019-01-10T20:55:57.067Z,0.40
2019-01-10T20:58:24.550Z,0.40
2019-01-10T21:00:53.078Z,0.40
2019-01-10T21:03:20.512Z,0.30
2019-01-10T21:05:50.506Z,0.30
2019-01-10T21:08:21.215Z,0.20
2019-01-10T21:10:48.539Z,0.00
2019-01-10T21:13:15.990Z,0.20
2019-01-10T21:15:43.403Z,0.20
2019-01-10T21:18:12.305Z,0.00
2019-01-10T21:20:43.633Z,0.10
2019-01-10T21:23:11.258Z,0.10
2019-01-10T21:25:38.675Z,0.00
2019-01-10T21:28:06.154Z,0.00
2019-01-10T21:30:33.568Z,-0.10
2019-01-10T21:33:00.995Z,-0.10
2019-01-10T21:35:28.478Z,-0.10
2019-01-10T21:37:56.547Z,0.00
2019-01-10T21:40:24.249Z,-0.10
2019-01-10T21:42:53.042Z,-0.10
2019-01-10T21:45:23.028Z,-0.10
2019-01-10T21:47:50.447Z,-0.20
2019-01-10T21:50:22.835Z,-0.20
2019-01-10T21:52:53.223Z,-0.20
2019-01-10T21:55:22.470Z,-0.20
2019-01-10T21:57:49.939Z,-0.30
2019-01-10T22:00:23.651Z,-0.20
2019-01-10T22:02:52.740Z,-0.30
2019-01-10T22:05:20.705Z,-0.30
2019-01-10T22:07:50.140Z,-0.40
2019-01-10T22:10:17.604Z,-0.30
2019-01-10T22:12:45.012Z,-0.30
2019-01-10T22:15:12.645Z,-0.30
2019-01-10T22:17:40.163Z,-0.30
2019-01-10T22:20:09.412Z,-0.30
2019-01-10T22:22:36.852Z,-0.40
2019-01-10T22:25:04.868Z,-0.40
2019-01-10T22:27:32.278Z,-0.40
2019-01-10T22:29:59.974Z,-0.40
2019-01-10T22:32:27.629Z,-0.40
2019-01-10T22:34:55.035Z,-0.40
2019-01-10T22:37:28.790Z,-0.40
2019-01-10T22:39:51.844Z,-0.40
2019-01-10T22:42:19.249Z,-0.40
2019-01-10T22:44:46.663Z,-0.50
2019-01-10T22:47:16.003Z,-0.50
2019-01-10T22:49:43.867Z,-0.40
2019-01-10T22:52:11.277Z,-0.40
2019-01-10T22:54:38.907Z,-0.40
2019-01-10T22:57:07.395Z,-0.50
2019-01-10T22:59:34.817Z,-0.60
2019-01-10T23:02:03.407Z,-0.60
2019-01-10T23:04:34.234Z,-0.60
2019-01-10T23:07:01.654Z,-0.50
2019-01-10T23:09:29.144Z,-0.50
2019-01-10T23:11:56.559Z,-0.50
2019-01-10T23:14:24.362Z,-0.50
2019-01-10T23:16:51.967Z,-0.50
2019-01-10T23:19:19.387Z,-0.40
2019-01-10T23:21:47.140Z,-0.40
2019-01-10T23:24:17.468Z,-0.50
2019-01-10T23:26:54.859Z,-0.50
2019-01-10T23:29:29.811Z,-0.50
2019-01-10T23:31:57.220Z,-0.50
2019-01-10T23:34:24.629Z,-0.50
2019-01-10T23:36:54.432Z,-0.50
2019-01-10T23:39:22.892Z,-0.50
2019-01-10T23:41:51.889Z,-0.50
2019-01-10T23:44:19.747Z,-0.50
2019-01-10T23:46:47.147Z,-0.60
2019-01-10T23:49:14.547Z,-0.60
2019-01-10T23:51:42.507Z,-0.60
2019-01-10T23:54:10.318Z,-0.60
2019-01-10T23:56:37.716Z,-0.60
2019-01-10T23:59:05.179Z,-0.60
